Time;durP1;ratioP1;P1;durP2;ratioP2;P2;SDS_P1;SDS_P2;PMS_P1;PMS_P2;Temp;Humidity;BMP_temperature;BMP_pressure;BME280_temperature;BME280_humidity;BME280_pressure;Samples;Min_cycle;Max_cycle;Signal;HPM_P1;HPM_P2
2024/01/05 00:01:55;;;;;;;4.10;2.70;;;;;;;;;;756489;179;920327;-65
2024/01/05 00:04:21;;;;;;;3.37;2.77;;;;;;;;;;763587;181;919206;-61
2024/01/05 00:06:47;;;;;;;5.93;3.53;;;;;;;;;;761003;181;815827;-65
2024/01/05 00:09:12;;;;;;;7.90;3.07;;;;;;;;;;750114;183;1021838;-65
2024/01/05 00:11:38;;;;;;;5.77;2.87;;;;;;;;;;735839;186;918916;-61
2024/01/05 00:14:04;;;;;;;4.90;2.60;;;;;;;;;;751138;182;1022461;-65
2024/01/05 00:16:30;;;;;;;5.20;2.53;;;;;;;;;;755069;181;920978;-64
2024/01/05 00:18:56;;;;;;;4.33;2.77;;;;;;;;;;757652;181;918794;-61
2024/01/05 00:21:21;;;;;;;4.23;2.57;;;;;;;;;;761504;181;814076;-65
2024/01/05 00:23:47;;;;;;;4.03;2.80;;;;;;;;;;755796;181;919307;-61
2024/01/05 00:26:13;;;;;;;4.57;2.57;;;;;;;;;;758434;181;923867;-61
2024/01/05 00:28:39;;;;;;;4.30;2.73;;;;;;;;;;765872;181;810175;-61
2024/01/05 00:31:05;;;;;;;2.97;2.10;;;;;;;;;;761250;180;918128;-61
2024/01/05 00:33:31;;;;;;;5.57;2.90;;;;;;;;;;755478;181;916267;-65
2024/01/05 00:35:59;;;;;;;4.80;2.77;;;;;;;;;;759746;181;914884;-65
2024/01/05 00:38:22;;;;;;;4.87;2.87;;;;;;;;;;753837;182;918498;-61
2024/01/05 00:40:48;;;;;;;3.30;2.40;;;;;;;;;;761018;178;1022525;-65
2024/01/05 00:43:14;;;;;;;4.12;2.75;;;;;;;;;;755942;181;913190;-65
2024/01/05 00:45:40;;;;;;;4.50;2.40;;;;;;;;;;757857;183;920601;-65
2024/01/05 00:48:06;;;;;;;4.10;2.73;;;;;;;;;;759570;181;918576;-61
2024/01/05 00:50:32;;;;;;;5.97;3.35;;;;;;;;;;756848;182;918491;-61
2024/01/05 00:52:58;;;;;;;4.33;2.53;;;;;;;;;;758322;181;818677;-65
2024/01/05 00:55:24;;;;;;;4.03;2.73;;;;;;;;;;730938;188;938211;-65
2024/01/05 00:57:50;;;;;;;5.10;3.15;;;;;;;;;;735251;187;914207;-65
2024/01/05 01:00:16;;;;;;;5.10;2.90;;;;;;;;;;739202;185;1019549;-62
2024/01/05 01:02:41;;;;;;;4.53;2.87;;;;;;;;;;755706;182;919408;-65
2024/01/05 01:05:08;;;;;;;6.72;3.15;;;;;;;;;;756083;181;922903;-61
2024/01/05 01:07:33;;;;;;;6.00;3.63;;;;;;;;;;753800;184;914093;-61
2024/01/05 01:09:59;;;;;;;5.67;3.20;;;;;;;;;;753033;183;918450;-62
2024/01/05 01:12:25;;;;;;;5.73;3.83;;;;;;;;;;754864;181;917852;-61
2024/01/05 01:14:51;;;;;;;4.60;2.53;;;;;;;;;;751447;183;919352;-62
2024/01/05 01:17:17;;;;;;;4.00;2.47;;;;;;;;;;762172;181;919163;-61
2024/01/05 01:19:43;;;;;;;3.80;2.13;;;;;;;;;;753500;181;909440;-65
2024/01/05 01:22:08;;;;;;;3.58;2.35;;;;;;;;;;753114;182;914378;-65
2024/01/05 01:24:34;;;;;;;3.70;2.50;;;;;;;;;;756334;183;920939;-61
2024/01/05 01:27:00;;;;;;;3.73;2.00;;;;;;;;;;751552;183;921076;-64
2024/01/05 01:29:26;;;;;;;3.00;1.80;;;;;;;;;;747669;185;919572;-66
2024/01/05 01:31:52;;;;;;;3.90;2.13;;;;;;;;;;755021;182;816293;-61
2024/01/05 01:34:18;;;;;;;4.30;2.40;;;;;;;;;;759237;181;922775;-62
2024/01/05 01:36:44;;;;;;;3.43;2.33;;;;;;;;;;756430;181;919140;-66
2024/01/05 01:39:11;;;;;;;3.72;2.30;;;;;;;;;;755965;182;918504;-61
2024/01/05 01:41:35;;;;;;;4.10;3.00;;;;;;;;;;758606;182;918445;-65
2024/01/05 01:44:01;;;;;;;4.70;2.40;;;;;;;;;;759978;181;920419;-61
2024/01/05 01:46:28;;;;;;;4.33;2.20;;;;;;;;;;751458;182;917791;-61
2024/01/05 01:48:53;;;;;;;3.50;2.13;;;;;;;;;;760579;181;813918;-66
2024/01/05 01:51:19;;;;;;;3.20;2.03;;;;;;;;;;755410;182;891568;-62
2024/01/05 01:53:45;;;;;;;3.07;1.83;;;;;;;;;;753327;182;1010791;-65
2024/01/05 01:56:11;;;;;;;3.60;2.20;;;;;;;;;;768405;181;849594;-66
2024/01/05 01:58:36;;;;;;;4.20;2.13;;;;;;;;;;759456;181;785858;-65
2024/01/05 02:01:02;;;;;;;3.13;1.77;;;;;;;;;;756479;182;914299;-67
2024/01/05 02:03:28;;;;;;;3.40;2.10;;;;;;;;;;759395;182;918614;-66
2024/01/05 02:05:54;;;;;;;4.47;2.50;;;;;;;;;;751383;181;907769;-65
2024/01/05 02:08:20;;;;;;;3.83;2.30;;;;;;;;;;740897;182;920540;-61
2024/01/05 02:10:46;;;;;;;3.03;2.00;;;;;;;;;;749864;185;819670;-61
2024/01/05 02:13:11;;;;;;;4.60;2.23;;;;;;;;;;765140;181;919407;-61
2024/01/05 02:15:37;;;;;;;3.57;2.30;;;;;;;;;;755062;181;815295;-61
2024/01/05 02:18:11;;;;;;;6.43;2.22;;;;;;;;;;754752;182;914183;-65
2024/01/05 02:20:36;;;;;;;3.03;1.97;;;;;;;;;;761069;182;916387;-65
2024/01/05 02:23:02;;;;;;;3.20;1.90;;;;;;;;;;754988;181;920094;-66
2024/01/05 02:25:28;;;;;;;3.10;2.00;;;;;;;;;;756349;182;918293;-65
2024/01/05 02:27:54;;;;;;;4.73;3.00;;;;;;;;;;751251;183;919369;-65
2024/01/05 02:30:20;;;;;;;3.43;2.10;;;;;;;;;;760485;181;921023;-60
2024/01/05 02:32:45;;;;;;;3.47;2.07;;;;;;;;;;741981;186;920598;-61
2024/01/05 02:35:11;;;;;;;5.97;2.17;;;;;;;;;;748983;184;920261;-65
2024/01/05 02:37:37;;;;;;;3.30;2.13;;;;;;;;;;767039;181;919313;-65
2024/01/05 02:40:03;;;;;;;5.60;2.00;;;;;;;;;;756150;181;816702;-61
2024/01/05 02:42:29;;;;;;;3.73;2.10;;;;;;;;;;761361;181;918940;-61
2024/01/05 02:44:55;;;;;;;4.23;2.37;;;;;;;;;;761844;182;815383;-66
2024/01/05 02:47:21;;;;;;;3.90;2.50;;;;;;;;;;757038;181;959664;-65
2024/01/05 02:49:47;;;;;;;3.17;2.10;;;;;;;;;;760341;181;896895;-61
2024/01/05 02:52:12;;;;;;;3.80;2.20;;;;;;;;;;759721;181;917167;-65
2024/01/05 02:54:38;;;;;;;3.47;2.07;;;;;;;;;;749934;184;922198;-66
2024/01/05 02:57:04;;;;;;;3.90;2.33;;;;;;;;;;760775;181;889037;-66
2024/01/05 02:59:30;;;;;;;4.17;2.50;;;;;;;;;;754001;182;925149;-65
2024/01/05 03:01:56;;;;;;;4.43;3.43;;;;;;;;;;759984;182;918050;-61
2024/01/05 03:04:22;;;;;;;4.20;2.50;;;;;;;;;;756122;181;816406;-62
2024/01/05 03:06:48;;;;;;;5.10;3.17;;;;;;;;;;754276;182;918753;-65
2024/01/05 03:09:13;;;;;;;4.00;2.33;;;;;;;;;;758613;181;919334;-65
2024/01/05 03:11:39;;;;;;;5.03;2.80;;;;;;;;;;753479;183;919563;-65
2024/01/05 03:14:05;;;;;;;4.70;3.13;;;;;;;;;;753735;182;919053;-61
2024/01/05 03:16:31;;;;;;;3.62;2.25;;;;;;;;;;759821;181;908649;-66
2024/01/05 03:18:57;;;;;;;3.83;2.57;;;;;;;;;;756592;182;914627;-61
2024/01/05 03:21:23;;;;;;;3.90;2.20;;;;;;;;;;756019;181;917097;-65
2024/01/05 03:23:48;;;;;;;3.83;2.67;;;;;;;;;;759049;181;919731;-61
2024/01/05 03:26:14;;;;;;;5.47;2.40;;;;;;;;;;760797;178;839559;-65
2024/01/05 03:28:40;;;;;;;5.30;2.87;;;;;;;;;;755598;182;817205;-66
2024/01/05 03:31:06;;;;;;;3.93;2.50;;;;;;;;;;752874;183;818577;-62
2024/01/05 03:33:32;;;;;;;3.40;2.03;;;;;;;;;;757822;183;824947;-66
2024/01/05 03:35:58;;;;;;;4.47;2.67;;;;;;;;;;752964;182;938472;-61
2024/01/05 03:38:23;;;;;;;3.13;2.23;;;;;;;;;;754663;181;919586;-62
2024/01/05 03:40:49;;;;;;;3.87;2.60;;;;;;;;;;767463;179;811307;-63
2024/01/05 03:43:15;;;;;;;8.88;3.15;;;;;;;;;;755010;182;868167;-66
2024/01/05 03:45:41;;;;;;;4.20;2.57;;;;;;;;;;759021;181;919084;-62
2024/01/05 03:48:07;;;;;;;3.30;2.40;;;;;;;;;;758499;182;918233;-62
2024/01/05 03:50:33;;;;;;;4.00;2.70;;;;;;;;;;757760;182;884606;-65
2024/01/05 03:52:59;;;;;;;4.23;2.63;;;;;;;;;;761866;181;932182;-62
2024/01/05 03:55:24;;;;;;;6.00;2.73;;;;;;;;;;754213;184;916233;-62
2024/01/05 03:57:50;;;;;;;4.50;2.70;;;;;;;;;;762522;182;919048;-61
2024/01/05 04:00:16;;;;;;;4.93;2.40;;;;;;;;;;756243;181;918310;-62
2024/01/05 04:02:42;;;;;;;3.77;2.33;;;;;;;;;;754081;181;920063;-62
2024/01/05 04:05:09;;;;;;;4.80;2.93;;;;;;;;;;758010;183;814484;-66
2024/01/05 04:07:35;;;;;;;4.87;2.37;;;;;;;;;;751942;184;860850;-65
2024/01/05 04:10:00;;;;;;;4.80;3.30;;;;;;;;;;753328;182;919354;-61
2024/01/05 04:12:26;;;;;;;3.40;2.20;;;;;;;;;;759399;182;919120;-66
2024/01/05 04:14:52;;;;;;;5.80;3.13;;;;;;;;;;754863;181;916521;-61
2024/01/05 04:17:18;;;;;;;8.50;2.30;;;;;;;;;;756505;182;916923;-66
2024/01/05 04:19:43;;;;;;;4.73;2.90;;;;;;;;;;753616;183;919644;-66
2024/01/05 04:22:09;;;;;;;6.27;2.70;;;;;;;;;;758370;182;918337;-66
2024/01/05 04:24:35;;;;;;;4.93;2.30;;;;;;;;;;753445;184;920633;-65
2024/01/05 04:27:01;;;;;;;5.93;2.70;;;;;;;;;;755066;182;911534;-61
2024/01/05 04:29:27;;;;;;;3.80;2.70;;;;;;;;;;756435;184;817939;-65
2024/01/05 04:31:53;;;;;;;4.10;2.87;;;;;;;;;;754060;181;816632;-61
2024/01/05 04:34:18;;;;;;;3.55;2.35;;;;;;;;;;759506;181;923496;-65
2024/01/05 04:36:44;;;;;;;4.47;3.20;;;;;;;;;;759941;181;818536;-66
2024/01/05 04:39:10;;;;;;;4.13;2.33;;;;;;;;;;754258;183;918929;-61
2024/01/05 04:41:36;;;;;;;4.33;2.77;;;;;;;;;;760473;178;913690;-65
2024/01/05 04:44:03;;;;;;;7.57;3.30;;;;;;;;;;762702;181;918737;-64
2024/01/05 04:46:28;;;;;;;5.23;2.83;;;;;;;;;;745572;184;918244;-61
2024/01/05 04:48:54;;;;;;;4.97;2.23;;;;;;;;;;757206;180;917282;-61
2024/01/05 04:51:20;;;;;;;5.37;2.30;;;;;;;;;;751512;183;923185;-65
2024/01/05 04:53:46;;;;;;;5.27;2.40;;;;;;;;;;757209;184;920383;-61
2024/01/05 04:56:12;;;;;;;2.90;1.63;;;;;;;;;;752718;183;917426;-62
2024/01/05 04:58:38;;;;;;;3.47;1.67;;;;;;;;;;758178;181;831624;-66
2024/01/05 05:01:03;;;;;;;7.87;1.87;;;;;;;;;;765990;181;632137;-65
2024/01/05 05:03:30;;;;;;;6.17;2.47;;;;;;;;;;753895;183;917245;-61
2024/01/05 05:05:55;;;;;;;3.70;2.03;;;;;;;;;;760113;181;626009;-61
2024/01/05 05:08:21;;;;;;;7.53;4.00;;;;;;;;;;761283;181;633849;-61
2024/01/05 05:10:47;;;;;;;3.50;2.00;;;;;;;;;;759484;178;625387;-62
2024/01/05 05:13:13;;;;;;;4.77;2.50;;;;;;;;;;754319;181;919555;-62
2024/01/05 05:15:39;;;;;;;5.10;2.07;;;;;;;;;;755374;181;919690;-66
2024/01/05 05:18:05;;;;;;;5.43;1.90;;;;;;;;;;762566;181;779081;-60
2024/01/05 05:20:31;;;;;;;3.70;1.97;;;;;;;;;;758727;181;917008;-61
2024/01/05 05:22:57;;;;;;;5.53;2.10;;;;;;;;;;761034;181;627246;-66
2024/01/05 05:25:23;;;;;;;4.60;2.40;;;;;;;;;;758863;183;921547;-65
2024/01/05 05:27:49;;;;;;;5.50;2.20;;;;;;;;;;736677;189;623839;-61
2024/01/05 05:30:15;;;;;;;6.30;2.00;;;;;;;;;;741407;185;633351;-61
2024/01/05 05:32:40;;;;;;;3.53;2.00;;;;;;;;;;743925;186;624393;-61
2024/01/05 05:35:06;;;;;;;6.20;2.73;;;;;;;;;;756713;181;625711;-66
2024/01/05 05:37:32;;;;;;;6.33;2.50;;;;;;;;;;761400;181;629735;-63
2024/01/05 05:39:58;;;;;;;3.57;1.80;;;;;;;;;;755584;183;625518;-66
2024/01/05 05:42:24;;;;;;;3.70;2.10;;;;;;;;;;755305;184;664073;-61
2024/01/05 05:44:49;;;;;;;5.80;2.00;;;;;;;;;;765432;181;622747;-66
2024/01/05 05:47:16;;;;;;;13.75;2.28;;;;;;;;;;755474;182;861089;-61
2024/01/05 05:49:41;;;;;;;6.43;2.10;;;;;;;;;;762941;182;623284;-65
2024/01/05 05:52:07;;;;;;;5.77;2.03;;;;;;;;;;758411;181;628094;-66
2024/01/05 05:54:33;;;;;;;4.30;1.73;;;;;;;;;;762624;181;637958;-62
2024/01/05 05:56:59;;;;;;;3.87;2.00;;;;;;;;;;762850;182;624698;-65
2024/01/05 05:59:25;;;;;;;5.40;2.60;;;;;;;;;;749050;182;918078;-61
2024/01/05 06:01:51;;;;;;;3.80;2.03;;;;;;;;;;750353;183;899195;-64
2024/01/05 06:04:17;;;;;;;8.17;3.43;;;;;;;;;;761134;181;895208;-62
2024/01/05 06:06:43;;;;;;;9.03;3.13;;;;;;;;;;748097;186;816331;-65
2024/01/05 06:09:11;;;;;;;5.30;2.90;;;;;;;;;;751716;183;917310;-66
2024/01/05 06:11:35;;;;;;;3.40;1.97;;;;;;;;;;756683;181;820926;-61
2024/01/05 06:14:04;;;;;;;3.97;2.60;;;;;;;;;;765781;180;817428;-66
2024/01/05 06:16:26;;;;;;;6.33;3.20;;;;;;;;;;754562;180;938148;-62
2024/01/05 06:18:52;;;;;;;3.67;2.00;;;;;;;;;;755031;181;910238;-61
2024/01/05 06:21:18;;;;;;;4.30;2.23;;;;;;;;;;762648;181;918971;-66
2024/01/05 06:23:44;;;;;;;5.27;2.67;;;;;;;;;;756833;181;917580;-61
2024/01/05 06:26:10;;;;;;;4.57;2.35;;;;;;;;;;754342;183;913576;-67
2024/01/05 06:28:36;;;;;;;4.10;2.27;;;;;;;;;;765475;181;918333;-66
2024/01/05 06:31:01;;;;;;;5.13;2.93;;;;;;;;;;759350;181;902431;-66
2024/01/05 06:33:27;;;;;;;4.60;2.00;;;;;;;;;;755499;182;932600;-66
2024/01/05 06:35:53;;;;;;;3.33;2.40;;;;;;;;;;750570;184;920499;-61
2024/01/05 06:38:19;;;;;;;5.70;2.30;;;;;;;;;;758887;183;929831;-60
2024/01/05 06:40:45;;;;;;;6.57;2.40;;;;;;;;;;761997;181;856463;-65
2024/01/05 06:43:11;;;;;;;5.10;2.30;;;;;;;;;;757844;182;816233;-66
2024/01/05 06:45:37;;;;;;;5.33;2.47;;;;;;;;;;767454;181;815440;-62
2024/01/05 06:48:03;;;;;;;3.77;2.00;;;;;;;;;;756419;181;868359;-66
2024/01/05 06:50:28;;;;;;;5.83;2.47;;;;;;;;;;754382;182;1020778;-66
2024/01/05 06:52:54;;;;;;;2.97;2.17;;;;;;;;;;756448;183;1034031;-61
2024/01/05 06:55:20;;;;;;;3.80;2.33;;;;;;;;;;754544;182;920276;-66
2024/01/05 06:57:47;;;;;;;4.90;2.43;;;;;;;;;;753077;183;915236;-61
2024/01/05 07:00:13;;;;;;;4.63;1.83;;;;;;;;;;752330;183;908889;-62
2024/01/05 07:02:38;;;;;;;4.53;2.70;;;;;;;;;;750325;184;816744;-61
2024/01/05 07:05:04;;;;;;;5.67;3.17;;;;;;;;;;760606;181;919149;-62
2024/01/05 07:07:30;;;;;;;4.53;2.50;;;;;;;;;;753197;182;905744;-65
2024/01/05 07:09:56;;;;;;;5.57;2.70;;;;;;;;;;757822;181;716930;-65
2024/01/05 07:12:22;;;;;;;4.57;2.10;;;;;;;;;;753441;182;911917;-65
2024/01/05 07:14:48;;;;;;;3.33;2.10;;;;;;;;;;755152;182;933058;-62
2024/01/05 07:17:14;;;;;;;11.70;2.47;;;;;;;;;;756759;181;787277;-61
2024/01/05 07:19:40;;;;;;;6.20;2.47;;;;;;;;;;756366;181;903024;-66
2024/01/05 07:22:05;;;;;;;5.20;3.80;;;;;;;;;;748790;184;815106;-61
2024/01/05 07:24:33;;;;;;;3.43;2.33;;;;;;;;;;752586;185;917535;-61
2024/01/05 07:26:57;;;;;;;4.43;2.40;;;;;;;;;;750755;185;918864;-61
2024/01/05 07:29:23;;;;;;;6.97;2.50;;;;;;;;;;750726;184;917884;-65
2024/01/05 07:31:49;;;;;;;5.50;2.27;;;;;;;;;;748146;185;917699;-64
2024/01/05 07:34:14;;;;;;;3.20;1.90;;;;;;;;;;754605;184;918637;-63
2024/01/05 07:36:40;;;;;;;4.20;2.10;;;;;;;;;;754885;181;918967;-67
2024/01/05 07:39:07;;;;;;;3.15;1.83;;;;;;;;;;755376;181;902206;-67
2024/01/05 07:41:32;;;;;;;6.20;2.80;;;;;;;;;;761238;181;918325;-67
2024/01/05 07:43:58;;;;;;;4.55;2.20;;;;;;;;;;752918;183;918817;-63
2024/01/05 07:46:26;;;;;;;12.47;4.43;;;;;;;;;;735045;189;920430;-68
2024/01/05 07:48:50;;;;;;;6.97;3.67;;;;;;;;;;742857;187;816396;-63
2024/01/05 07:51:15;;;;;;;9.17;6.00;;;;;;;;;;757299;182;920219;-67
2024/01/05 07:53:41;;;;;;;8.77;5.40;;;;;;;;;;756560;181;918315;-63
2024/01/05 07:56:07;;;;;;;9.50;5.30;;;;;;;;;;757670;182;919569;-67
2024/01/05 07:58:33;;;;;;;6.83;5.13;;;;;;;;;;759715;183;815974;-67
2024/01/05 08:00:59;;;;;;;7.63;5.00;;;;;;;;;;763668;181;918176;-67
2024/01/05 08:03:25;;;;;;;7.43;5.03;;;;;;;;;;751699;184;916426;-67
2024/01/05 08:05:50;;;;;;;7.30;5.25;;;;;;;;;;743223;186;918573;-63
2024/01/05 08:08:16;;;;;;;8.07;6.33;;;;;;;;;;746772;183;925241;-67
2024/01/05 08:10:42;;;;;;;9.82;6.93;;;;;;;;;;748387;183;919267;-67
2024/01/05 08:13:08;;;;;;;9.00;5.70;;;;;;;;;;761037;181;902996;-63
2024/01/05 08:15:34;;;;;;;7.57;5.40;;;;;;;;;;754210;182;919563;-63
2024/01/05 08:18:00;;;;;;;9.77;6.07;;;;;;;;;;756236;181;817939;-68
2024/01/05 08:20:25;;;;;;;8.60;5.60;;;;;;;;;;759403;182;923145;-64
2024/01/05 08:22:51;;;;;;;7.70;5.47;;;;;;;;;;753987;182;817384;-68
2024/01/05 08:25:18;;;;;;;6.43;5.10;;;;;;;;;;753076;183;921345;-63
2024/01/05 08:27:43;;;;;;;9.37;5.53;;;;;;;;;;753811;180;917106;-67
2024/01/05 08:30:11;;;;;;;8.87;4.90;;;;;;;;;;757438;181;822664;-66
2024/01/05 08:32:38;;;;;;;9.60;5.00;;;;;;;;;;753776;181;816780;-67
2024/01/05 08:35:03;;;;;;;6.93;3.50;;;;;;;;;;752342;181;919579;-68
2024/01/05 08:37:29;;;;;;;6.63;3.20;;;;;;;;;;756999;183;919547;-67
2024/01/05 08:39:54;;;;;;;5.43;2.70;;;;;;;;;;757677;181;919152;-68
2024/01/05 08:42:20;;;;;;;4.70;3.50;;;;;;;;;;757588;178;1021299;-69
2024/01/05 08:44:46;;;;;;;5.63;3.30;;;;;;;;;;761881;181;820484;-64
2024/01/05 08:47:13;;;;;;;11.20;3.75;;;;;;;;;;755694;181;917924;-64
2024/01/05 08:49:38;;;;;;;7.03;3.60;;;;;;;;;;752904;183;919119;-63
2024/01/05 08:52:04;;;;;;;8.70;3.53;;;;;;;;;;730776;189;919578;-64
2024/01/05 08:54:30;;;;;;;5.70;3.73;;;;;;;;;;743976;186;818367;-63
2024/01/05 08:56:56;;;;;;;5.93;3.43;;;;;;;;;;755525;182;920557;-67
2024/01/05 08:59:21;;;;;;;8.32;3.37;;;;;;;;;;752851;182;913917;-66
2024/01/05 09:01:47;;;;;;;6.23;2.80;;;;;;;;;;758626;182;817338;-66
2024/01/05 09:04:13;;;;;;;6.03;2.77;;;;;;;;;;756850;182;920265;-62
2024/01/05 09:06:39;;;;;;;6.13;2.60;;;;;;;;;;756022;181;919780;-62
2024/01/05 09:09:05;;;;;;;8.17;2.90;;;;;;;;;;758019;181;802097;-62
2024/01/05 09:11:30;;;;;;;5.20;3.03;;;;;;;;;;756176;181;919425;-66
2024/01/05 09:13:56;;;;;;;7.27;3.10;;;;;;;;;;754363;182;813670;-62
2024/01/05 09:16:22;;;;;;;11.30;3.30;;;;;;;;;;754652;182;912211;-66
2024/01/05 09:18:49;;;;;;;4.80;2.33;;;;;;;;;;743991;186;912929;-67
2024/01/05 09:21:14;;;;;;;4.80;2.78;;;;;;;;;;752859;181;913581;-62
2024/01/05 09:23:41;;;;;;;4.83;3.40;;;;;;;;;;754271;182;911783;-66
2024/01/05 09:26:06;;;;;;;5.40;2.23;;;;;;;;;;756302;181;906240;-66
2024/01/05 09:28:31;;;;;;;3.37;1.70;;;;;;;;;;754677;182;940757;-62
2024/01/05 09:30:57;;;;;;;6.37;1.80;;;;;;;;;;756576;182;915353;-66
2024/01/05 09:33:24;;;;;;;5.50;2.10;;;;;;;;;;764832;181;818695;-66
2024/01/05 09:35:49;;;;;;;5.17;2.30;;;;;;;;;;751057;184;883602;-62
2024/01/05 09:38:15;;;;;;;5.10;2.23;;;;;;;;;;730765;188;916865;-61
2024/01/05 09:40:41;;;;;;;6.63;2.07;;;;;;;;;;739688;186;918511;-62
2024/01/05 09:43:07;;;;;;;4.80;1.60;;;;;;;;;;755380;182;812271;-62
2024/01/05 09:45:32;;;;;;;5.03;2.62;;;;;;;;;;754630;182;918676;-66
2024/01/05 09:48:00;;;;;;;3.70;1.73;;;;;;;;;;744424;184;921059;-63
2024/01/05 09:50:24;;;;;;;6.57;2.07;;;;;;;;;;763234;181;818637;-62
2024/01/05 09:52:50;;;;;;;3.83;1.80;;;;;;;;;;758336;181;817182;-62
2024/01/05 09:55:16;;;;;;;7.10;1.97;;;;;;;;;;765104;181;785763;-66
2024/01/05 09:57:42;;;;;;;6.75;1.67;;;;;;;;;;760999;181;926098;-67
2024/01/05 10:00:09;;;;;;;3.53;1.50;;;;;;;;;;755582;181;919558;-66
2024/01/05 10:02:36;;;;;;;5.47;2.07;;;;;;;;;;761309;178;899579;-62
2024/01/05 10:05:02;;;;;;;3.70;1.57;;;;;;;;;;756365;181;918744;-63
2024/01/05 10:07:28;;;;;;;6.10;1.73;;;;;;;;;;757672;182;919395;-62
2024/01/05 10:09:54;;;;;;;2.83;1.70;;;;;;;;;;751116;181;913845;-66
2024/01/05 10:12:20;;;;;;;5.53;1.97;;;;;;;;;;753277;182;922581;-69
2024/01/05 10:14:47;;;;;;;3.20;1.60;;;;;;;;;;760817;181;928865;-67
2024/01/05 10:17:13;;;;;;;6.30;2.30;;;;;;;;;;756369;181;918769;-62
2024/01/05 10:19:41;;;;;;;4.33;1.63;;;;;;;;;;761726;181;816824;-62
2024/01/05 10:22:05;;;;;;;4.17;1.83;;;;;;;;;;755341;183;917185;-61
2024/01/05 10:24:31;;;;;;;3.47;2.00;;;;;;;;;;744652;185;933962;-66
2024/01/05 10:27:02;;;;;;;4.80;1.60;;;;;;;;;;750147;185;913766;-62
2024/01/05 10:29:28;;;;;;;4.53;1.80;;;;;;;;;;747439;186;816593;-62
2024/01/05 10:31:54;;;;;;;6.67;1.77;;;;;;;;;;751844;183;918390;-61
2024/01/05 10:34:20;;;;;;;5.40;1.80;;;;;;;;;;754092;182;889193;-63
2024/01/05 10:36:47;;;;;;;3.63;1.80;;;;;;;;;;752394;183;936356;-67
2024/01/05 10:39:14;;;;;;;6.07;2.30;;;;;;;;;;756673;183;818373;-62
2024/01/05 10:41:37;;;;;;;5.27;2.30;;;;;;;;;;751591;183;919573;-67
2024/01/05 10:44:04;;;;;;;4.45;2.60;;;;;;;;;;755363;182;914767;-67
2024/01/05 10:46:29;;;;;;;5.40;2.40;;;;;;;;;;763084;181;917107;-62
2024/01/05 10:48:55;;;;;;;7.68;2.53;;;;;;;;;;748419;186;824332;-67
2024/01/05 10:51:23;;;;;;;4.27;2.10;;;;;;;;;;751281;183;911849;-66
2024/01/05 10:53:47;;;;;;;3.83;2.10;;;;;;;;;;747955;185;940659;-62
2024/01/05 10:56:12;;;;;;;3.20;2.23;;;;;;;;;;753172;183;919249;-62
2024/01/05 10:58:38;;;;;;;9.03;2.90;;;;;;;;;;753359;181;919350;-66
2024/01/05 11:01:04;;;;;;;8.70;2.80;;;;;;;;;;755383;181;1020403;-63
2024/01/05 11:03:30;;;;;;;8.60;3.37;;;;;;;;;;760142;181;919860;-62
2024/01/05 11:05:56;;;;;;;7.07;3.13;;;;;;;;;;757711;181;920515;-62
2024/01/05 11:08:24;;;;;;;9.67;6.20;;;;;;;;;;756185;181;917317;-66
2024/01/05 11:10:50;;;;;;;9.83;5.90;;;;;;;;;;759852;181;919146;-67
2024/01/05 11:13:16;;;;;;;9.27;4.37;;;;;;;;;;742798;185;918641;-67
2024/01/05 11:15:45;;;;;;;10.43;5.60;;;;;;;;;;752925;185;744100;-62
2024/01/05 11:18:15;;;;;;;9.93;5.80;;;;;;;;;;761602;181;630387;-67
2024/01/05 11:20:45;;;;;;;7.00;5.60;;;;;;;;;;767236;178;916390;-67
2024/01/05 11:23:11;;;;;;;10.13;4.37;;;;;;;;;;750182;181;933801;-62
2024/01/05 11:25:37;;;;;;;7.40;4.60;;;;;;;;;;755119;181;1040775;-66
2024/01/05 11:28:03;;;;;;;9.40;5.67;;;;;;;;;;746147;185;919397;-66
2024/01/05 11:30:35;;;;;;;10.43;7.00;;;;;;;;;;753228;184;919019;-62
2024/01/05 11:33:00;;;;;;;15.50;7.20;;;;;;;;;;758925;181;818489;-68
2024/01/05 11:35:26;;;;;;;16.67;8.30;;;;;;;;;;755016;181;915126;-67
2024/01/05 11:37:52;;;;;;;10.40;6.50;;;;;;;;;;755045;181;816626;-62
2024/01/05 11:40:24;;;;;;;9.63;5.70;;;;;;;;;;754749;181;716474;-68
2024/01/05 11:42:50;;;;;;;11.57;4.80;;;;;;;;;;757319;181;629805;-67
2024/01/05 11:45:15;;;;;;;19.00;5.78;;;;;;;;;;755682;182;914729;-67
2024/01/05 11:47:43;;;;;;;12.60;7.13;;;;;;;;;;757052;182;913314;-62
2024/01/05 11:50:26;;;;;;;13.40;8.40;;;;;;;;;;745696;186;918703;-67
2024/01/05 11:52:57;;;;;;;15.10;9.00;;;;;;;;;;755289;183;634900;-62
2024/01/05 11:55:23;;;;;;;13.23;7.60;;;;;;;;;;758256;181;816476;-67
2024/01/05 11:57:49;;;;;;;14.70;7.57;;;;;;;;;;753252;184;918903;-66
2024/01/05 12:00:15;;;;;;;21.70;9.10;;;;;;;;;;759674;181;823156;-62
2024/01/05 12:02:41;;;;;;;18.60;10.07;;;;;;;;;;757595;181;915383;-62
2024/01/05 12:05:07;;;;;;;22.13;9.60;;;;;;;;;;756006;181;914193;-66
2024/01/05 12:07:33;;;;;;;32.17;14.20;;;;;;;;;;760134;181;844974;-66
2024/01/05 12:09:58;;;;;;;26.70;15.43;;;;;;;;;;756079;181;917504;-68
2024/01/05 12:12:25;;;;;;;16.62;10.40;;;;;;;;;;754463;181;855702;-66
2024/01/05 12:14:50;;;;;;;24.67;16.90;;;;;;;;;;759748;182;918204;-67
2024/01/05 12:17:16;;;;;;;20.27;13.03;;;;;;;;;;754895;182;923550;-68
2024/01/05 12:19:42;;;;;;;16.90;7.57;;;;;;;;;;759847;181;822975;-66
2024/01/05 12:22:08;;;;;;;13.27;7.30;;;;;;;;;;757388;179;921964;-66
2024/01/05 12:24:33;;;;;;;17.37;7.10;;;;;;;;;;758543;181;922117;-66
2024/01/05 12:26:59;;;;;;;15.50;7.23;;;;;;;;;;758549;181;915913;-67
2024/01/05 12:29:25;;;;;;;12.30;8.98;;;;;;;;;;752086;184;910456;-62
2024/01/05 12:31:51;;;;;;;10.50;5.70;;;;;;;;;;758422;181;807286;-62
2024/01/05 12:34:17;;;;;;;11.87;4.97;;;;;;;;;;753092;182;920881;-62
2024/01/05 12:36:43;;;;;;;8.17;5.47;;;;;;;;;;755100;181;911152;-67
2024/01/05 12:39:10;;;;;;;13.93;5.87;;;;;;;;;;755738;185;853762;-67
2024/01/05 12:41:34;;;;;;;10.20;5.93;;;;;;;;;;753837;183;894148;-62
2024/01/05 12:44:00;;;;;;;19.07;6.80;;;;;;;;;;736892;189;753921;-68
2024/01/05 12:46:26;;;;;;;15.10;6.70;;;;;;;;;;761566;181;916956;-62
2024/01/05 12:48:52;;;;;;;8.53;5.00;;;;;;;;;;755301;181;925607;-67
2024/01/05 12:51:19;;;;;;;10.90;5.43;;;;;;;;;;753517;182;895905;-67
2024/01/05 12:53:50;;;;;;;11.07;5.70;;;;;;;;;;744286;185;625202;-67
2024/01/05 12:56:14;;;;;;;17.77;8.40;;;;;;;;;;763427;181;643249;-66
2024/01/05 12:58:40;;;;;;;20.60;10.43;;;;;;;;;;751483;181;917264;-67
2024/01/05 13:01:06;;;;;;;15.60;7.13;;;;;;;;;;763597;181;815013;-68
2024/01/05 13:03:32;;;;;;;12.40;5.70;;;;;;;;;;758524;183;815072;-66
2024/01/05 13:06:04;;;;;;;8.00;5.10;;;;;;;;;;753955;182;917427;-67
2024/01/05 13:08:34;;;;;;;9.23;4.43;;;;;;;;;;754141;181;917967;-66
2024/01/05 13:10:55;;;;;;;9.27;4.32;;;;;;;;;;753516;182;912294;-62
2024/01/05 13:13:21;;;;;;;8.60;4.47;;;;;;;;;;760212;182;918996;-67
2024/01/05 13:15:47;;;;;;;15.10;5.37;;;;;;;;;;757482;182;918810;-66
2024/01/05 13:18:13;;;;;;;9.10;5.20;;;;;;;;;;755790;181;903374;-67
2024/01/05 13:20:39;;;;;;;22.80;14.10;;;;;;;;;;753789;184;918855;-62
2024/01/05 13:23:05;;;;;;;60.40;32.70;;;;;;;;;;751053;182;952303;-67
2024/01/05 13:25:31;;;;;;;16.67;7.93;;;;;;;;;;758911;181;1021087;-67
2024/01/05 13:27:58;;;;;;;13.27;6.27;;;;;;;;;;758123;180;937816;-66
2024/01/05 13:30:23;;;;;;;7.57;4.00;;;;;;;;;;743077;187;811180;-66
2024/01/05 13:32:49;;;;;;;26.57;14.67;;;;;;;;;;739124;188;951195;-62
2024/01/05 13:35:14;;;;;;;26.13;15.53;;;;;;;;;;754305;181;916896;-62
2024/01/05 13:37:40;;;;;;;22.48;14.02;;;;;;;;;;758384;182;916156;-61
2024/01/05 13:40:07;;;;;;;25.70;14.73;;;;;;;;;;762401;180;921475;-62
2024/01/05 13:42:32;;;;;;;14.57;7.30;;;;;;;;;;751120;182;921718;-63
2024/01/05 13:44:58;;;;;;;10.10;6.20;;;;;;;;;;760041;182;812782;-67
2024/01/05 13:47:24;;;;;;;17.20;7.63;;;;;;;;;;756367;182;819473;-68
2024/01/05 13:49:50;;;;;;;30.40;11.98;;;;;;;;;;753167;182;914292;-61
2024/01/05 13:52:16;;;;;;;43.10;19.27;;;;;;;;;;760265;181;919719;-66
2024/01/05 13:54:41;;;;;;;42.60;19.17;;;;;;;;;;765073;181;816636;-66
2024/01/05 13:57:07;;;;;;;35.30;13.57;;;;;;;;;;761460;181;913894;-67
2024/01/05 13:59:33;;;;;;;15.07;5.30;;;;;;;;;;749752;184;922735;-62
2024/01/05 14:01:59;;;;;;;12.37;6.90;;;;;;;;;;756815;181;803274;-63
2024/01/05 14:04:25;;;;;;;15.97;9.77;;;;;;;;;;751628;181;912646;-62
2024/01/05 14:06:51;;;;;;;18.52;10.35;;;;;;;;;;753596;182;920402;-66
2024/01/05 14:09:17;;;;;;;12.30;7.17;;;;;;;;;;759887;182;951923;-67
2024/01/05 14:11:43;;;;;;;17.27;7.43;;;;;;;;;;755820;181;915491;-70
2024/01/05 14:14:09;;;;;;;11.10;7.97;;;;;;;;;;755384;182;916743;-63
2024/01/05 14:16:34;;;;;;;11.57;7.00;;;;;;;;;;756881;184;917977;-67
2024/01/05 14:19:01;;;;;;;16.27;7.60;;;;;;;;;;759938;181;920098;-63